sensor_id;sensor_type;location;lat;lon;timestamp;temperature;humidity
63260;DHT22;49390;51.380;0.098;2024-02-21T00:00:20;10.20;99.90
63260;DHT22;49390;51.380;0.098;2024-02-21T00:03:08;10.20;99.90
63260;DHT22;49390;51.380;0.098;2024-02-21T00:05:36;10.20;99.90
63260;DHT22;49390;51.380;0.098;2024-02-21T00:08:04;10.20;99.90
63260;DHT22;49390;51.380;0.098;2024-02-21T00:10:32;10.20;99.90
63260;DHT22;49390;51.380;0.098;2024-02-21T00:13:01;10.10;99.90
63260;DHT22;49390;51.380;0.098;2024-02-21T00:15:28;10.20;99.90
63260;DHT22;49390;51.380;0.098;2024-02-21T00:17:56;10.20;99.90
63260;DHT22;49390;51.380;0.098;2024-02-21T00:20:24;10.20;99.90
63260;DHT22;49390;51.380;0.098;2024-02-21T00:22:53;10.20;99.90
63260;DHT22;49390;51.380;0.098;2024-02-21T00:25:22;10.20;99.90
63260;DHT22;49390;51.380;0.098;2024-02-21T00:27:50;10.20;99.90
63260;DHT22;49390;51.380;0.098;2024-02-21T00:30:19;10.20;99.90
63260;DHT22;49390;51.380;0.098;2024-02-21T00:32:47;10.30;99.90
63260;DHT22;49390;51.380;0.098;2024-02-21T00:37:37;10.20;99.90
63260;DHT22;49390;51.380;0.098;2024-02-21T00:40:06;10.30;99.90
63260;DHT22;49390;51.380;0.098;2024-02-21T00:42:34;10.30;99.90
63260;DHT22;49390;51.380;0.098;2024-02-21T00:45:02;10.30;99.90
63260;DHT22;49390;51.380;0.098;2024-02-21T00:47:30;10.30;99.90
63260;DHT22;49390;51.380;0.098;2024-02-21T00:49:58;10.30;99.90
63260;DHT22;49390;51.380;0.098;2024-02-21T00:52:26;10.30;99.90
63260;DHT22;49390;51.380;0.098;2024-02-21T00:54:54;10.30;99.90
63260;DHT22;49390;51.380;0.098;2024-02-21T00:57:22;10.30;99.90
63260;DHT22;49390;51.380;0.098;2024-02-21T00:59:51;10.30;99.90
63260;DHT22;49390;51.380;0.098;2024-02-21T01:02:19;10.30;99.90
63260;DHT22;49390;51.380;0.098;2024-02-21T01:04:47;10.30;99.90
63260;DHT22;49390;51.380;0.098;2024-02-21T01:09:40;10.30;99.90
63260;DHT22;49390;51.380;0.098;2024-02-21T01:12:08;10.30;99.90
63260;DHT22;49390;51.380;0.098;2024-02-21T01:14:36;10.20;99.90
63260;DHT22;49390;51.380;0.098;2024-02-21T01:17:04;10.20;99.90
63260;DHT22;49390;51.380;0.098;2024-02-21T01:19:33;10.30;99.90
63260;DHT22;49390;51.380;0.098;2024-02-21T01:22:01;10.20;99.90
63260;DHT22;49390;51.380;0.098;2024-02-21T01:24:29;10.20;99.90
63260;DHT22;49390;51.380;0.098;2024-02-21T01:26:57;10.20;99.90
63260;DHT22;49390;51.380;0.098;2024-02-21T01:29:24;10.20;99.90
63260;DHT22;49390;51.380;0.098;2024-02-21T01:31:52;10.30;99.90
63260;DHT22;49390;51.380;0.098;2024-02-21T01:34:20;10.30;99.90
63260;DHT22;49390;51.380;0.098;2024-02-21T01:36:48;10.20;99.90
63260;DHT22;49390;51.380;0.098;2024-02-21T01:39:16;10.20;99.90
63260;DHT22;49390;51.380;0.098;2024-02-21T01:41:44;10.30;99.90
63260;DHT22;49390;51.380;0.098;2024-02-21T01:44:11;10.50;99.90
63260;DHT22;49390;51.380;0.098;2024-02-21T01:46:39;10.20;99.90
63260;DHT22;49390;51.380;0.098;2024-02-21T01:49:07;10.20;99.90
63260;DHT22;49390;51.380;0.098;2024-02-21T01:51:36;10.20;99.90
63260;DHT22;49390;51.380;0.098;2024-02-21T01:54:04;10.20;99.90
63260;DHT22;49390;51.380;0.098;2024-02-21T01:56:32;10.20;99.90
63260;DHT22;49390;51.380;0.098;2024-02-21T01:59:00;10.30;99.90
63260;DHT22;49390;51.380;0.098;2024-02-21T02:01:29;10.30;99.90
63260;DHT22;49390;51.380;0.098;2024-02-21T02:03:57;10.30;99.90
63260;DHT22;49390;51.380;0.098;2024-02-21T02:06:26;10.20;99.90
63260;DHT22;49390;51.380;0.098;2024-02-21T02:08:54;10.30;99.90
63260;DHT22;49390;51.380;0.098;2024-02-21T02:11:22;10.30;99.90
63260;DHT22;49390;51.380;0.098;2024-02-21T02:13:50;10.30;99.90
63260;DHT22;49390;51.380;0.098;2024-02-21T02:16:18;10.30;99.90
63260;DHT22;49390;51.380;0.098;2024-02-21T02:18:46;10.30;99.90
63260;DHT22;49390;51.380;0.098;2024-02-21T02:21:32;10.30;99.90
63260;DHT22;49390;51.380;0.098;2024-02-21T02:24:01;10.30;99.90
63260;DHT22;49390;51.380;0.098;2024-02-21T02:26:29;10.30;99.90
63260;DHT22;49390;51.380;0.098;2024-02-21T02:28:57;10.30;99.90
63260;DHT22;49390;51.380;0.098;2024-02-21T02:31:25;10.30;99.90
63260;DHT22;49390;51.380;0.098;2024-02-21T02:33:52;10.30;99.90
63260;DHT22;49390;51.380;0.098;2024-02-21T02:36:21;10.30;99.90
63260;DHT22;49390;51.380;0.098;2024-02-21T02:38:48;10.20;99.90
63260;DHT22;49390;51.380;0.098;2024-02-21T02:41:16;10.20;99.90
63260;DHT22;49390;51.380;0.098;2024-02-21T02:43:44;10.20;99.90
63260;DHT22;49390;51.380;0.098;2024-02-21T02:46:12;10.30;99.90
63260;DHT22;49390;51.380;0.098;2024-02-21T02:48:39;10.30;99.90
63260;DHT22;49390;51.380;0.098;2024-02-21T02:51:08;10.30;99.90
63260;DHT22;49390;51.380;0.098;2024-02-21T02:53:35;10.30;99.90
63260;DHT22;49390;51.380;0.098;2024-02-21T02:56:03;10.30;99.90
63260;DHT22;49390;51.380;0.098;2024-02-21T02:58:31;10.30;99.90
63260;DHT22;49390;51.380;0.098;2024-02-21T03:00:59;10.30;99.90
63260;DHT22;49390;51.380;0.098;2024-02-21T03:03:27;10.30;99.90
63260;DHT22;49390;51.380;0.098;2024-02-21T03:05:55;10.30;99.90
63260;DHT22;49390;51.380;0.098;2024-02-21T03:08:22;10.30;99.90
63260;DHT22;49390;51.380;0.098;2024-02-21T03:10:50;10.30;99.90
63260;DHT22;49390;51.380;0.098;2024-02-21T03:13:18;10.30;99.90
63260;DHT22;49390;51.380;0.098;2024-02-21T03:15:47;10.30;99.90
63260;DHT22;49390;51.380;0.098;2024-02-21T03:18:14;10.30;99.90
63260;DHT22;49390;51.380;0.098;2024-02-21T03:20:42;10.30;99.90
63260;DHT22;49390;51.380;0.098;2024-02-21T03:23:10;10.30;99.90
63260;DHT22;49390;51.380;0.098;2024-02-21T03:25:38;10.30;99.90
63260;DHT22;49390;51.380;0.098;2024-02-21T03:28:05;10.30;99.90
63260;DHT22;49390;51.380;0.098;2024-02-21T03:30:33;10.30;99.90
63260;DHT22;49390;51.380;0.098;2024-02-21T03:33:02;10.20;99.90
63260;DHT22;49390;51.380;0.098;2024-02-21T03:35:30;10.20;99.90
63260;DHT22;49390;51.380;0.098;2024-02-21T03:37:58;10.30;99.90
63260;DHT22;49390;51.380;0.098;2024-02-21T03:40:26;10.20;99.90
63260;DHT22;49390;51.380;0.098;2024-02-21T03:42:53;10.20;99.90
63260;DHT22;49390;51.380;0.098;2024-02-21T03:45:21;10.20;99.90
63260;DHT22;49390;51.380;0.098;2024-02-21T03:47:49;10.20;99.90
63260;DHT22;49390;51.380;0.098;2024-02-21T03:50:17;10.30;99.90
63260;DHT22;49390;51.380;0.098;2024-02-21T03:52:45;10.30;99.90
63260;DHT22;49390;51.380;0.098;2024-02-21T03:55:13;10.20;99.90
63260;DHT22;49390;51.380;0.098;2024-02-21T03:57:40;10.10;99.90
63260;DHT22;49390;51.380;0.098;2024-02-21T04:00:08;10.20;99.90
63260;DHT22;49390;51.380;0.098;2024-02-21T04:02:38;10.10;99.90
63260;DHT22;49390;51.380;0.098;2024-02-21T04:05:06;10.10;99.90
63260;DHT22;49390;51.380;0.098;2024-02-21T04:07:38;10.10;99.90
63260;DHT22;49390;51.380;0.098;2024-02-21T04:10:07;10.10;99.90
63260;DHT22;49390;51.380;0.098;2024-02-21T04:12:35;10.10;99.90
63260;DHT22;49390;51.380;0.098;2024-02-21T04:15:03;10.10;99.90
63260;DHT22;49390;51.380;0.098;2024-02-21T04:17:30;10.10;99.90
63260;DHT22;49390;51.380;0.098;2024-02-21T04:20:04;10.10;99.90
63260;DHT22;49390;51.380;0.098;2024-02-21T04:22:34;10.00;99.90
63260;DHT22;49390;51.380;0.098;2024-02-21T04:25:03;10.10;99.90
63260;DHT22;49390;51.380;0.098;2024-02-21T04:27:31;10.10;99.90
63260;DHT22;49390;51.380;0.098;2024-02-21T04:29:59;10.00;99.90
63260;DHT22;49390;51.380;0.098;2024-02-21T04:32:27;9.90;99.90
63260;DHT22;49390;51.380;0.098;2024-02-21T04:34:55;10.00;99.90
63260;DHT22;49390;51.380;0.098;2024-02-21T04:37:23;10.10;99.90
63260;DHT22;49390;51.380;0.098;2024-02-21T04:39:52;10.00;99.90
63260;DHT22;49390;51.380;0.098;2024-02-21T04:42:19;10.00;99.90
63260;DHT22;49390;51.380;0.098;2024-02-21T04:44:47;10.00;99.90
63260;DHT22;49390;51.380;0.098;2024-02-21T04:47:15;10.00;99.90
63260;DHT22;49390;51.380;0.098;2024-02-21T04:49:43;10.00;99.90
63260;DHT22;49390;51.380;0.098;2024-02-21T04:52:10;9.90;99.90
63260;DHT22;49390;51.380;0.098;2024-02-21T04:54:38;10.00;99.90
63260;DHT22;49390;51.380;0.098;2024-02-21T04:57:06;10.00;99.90
63260;DHT22;49390;51.380;0.098;2024-02-21T04:59:34;10.00;99.90
63260;DHT22;49390;51.380;0.098;2024-02-21T05:02:03;10.00;99.90
63260;DHT22;49390;51.380;0.098;2024-02-21T05:04:31;9.90;99.90
63260;DHT22;49390;51.380;0.098;2024-02-21T05:07:00;10.00;99.90
63260;DHT22;49390;51.380;0.098;2024-02-21T05:09:28;9.90;99.90
63260;DHT22;49390;51.380;0.098;2024-02-21T05:11:56;10.00;99.90
63260;DHT22;49390;51.380;0.098;2024-02-21T05:14:26;10.00;99.90
63260;DHT22;49390;51.380;0.098;2024-02-21T05:16:54;9.90;99.90
63260;DHT22;49390;51.380;0.098;2024-02-21T05:19:22;9.90;99.90
63260;DHT22;49390;51.380;0.098;2024-02-21T05:21:50;9.90;99.90
63260;DHT22;49390;51.380;0.098;2024-02-21T05:24:18;9.90;99.90
63260;DHT22;49390;51.380;0.098;2024-02-21T05:26:45;9.90;99.90
63260;DHT22;49390;51.380;0.098;2024-02-21T05:29:13;9.80;99.90
63260;DHT22;49390;51.380;0.098;2024-02-21T05:34:22;9.90;99.90
63260;DHT22;49390;51.380;0.098;2024-02-21T05:36:50;9.80;99.90
63260;DHT22;49390;51.380;0.098;2024-02-21T05:39:18;10.00;99.90
63260;DHT22;49390;51.380;0.098;2024-02-21T05:41:45;9.90;99.90
63260;DHT22;49390;51.380;0.098;2024-02-21T05:44:13;9.90;99.90
63260;DHT22;49390;51.380;0.098;2024-02-21T05:46:42;9.90;99.90
63260;DHT22;49390;51.380;0.098;2024-02-21T05:49:10;9.90;99.90
63260;DHT22;49390;51.380;0.098;2024-02-21T05:51:38;9.90;99.90
63260;DHT22;49390;51.380;0.098;2024-02-21T05:54:06;9.90;99.90
63260;DHT22;49390;51.380;0.098;2024-02-21T05:56:34;9.80;99.90
63260;DHT22;49390;51.380;0.098;2024-02-21T05:59:02;9.80;99.90
63260;DHT22;49390;51.380;0.098;2024-02-21T06:01:30;9.80;99.90
63260;DHT22;49390;51.380;0.098;2024-02-21T06:03:58;9.80;99.90
63260;DHT22;49390;51.380;0.098;2024-02-21T06:06:26;9.80;99.90
63260;DHT22;49390;51.380;0.098;2024-02-21T06:08:54;9.70;99.90
63260;DHT22;49390;51.380;0.098;2024-02-21T06:11:21;9.70;99.90
63260;DHT22;49390;51.380;0.098;2024-02-21T06:13:49;9.70;99.90
63260;DHT22;49390;51.380;0.098;2024-02-21T06:16:17;9.70;99.90
63260;DHT22;49390;51.380;0.098;2024-02-21T06:18:45;9.70;99.90
63260;DHT22;49390;51.380;0.098;2024-02-21T06:21:12;9.60;99.90
63260;DHT22;49390;51.380;0.098;2024-02-21T06:23:40;9.60;99.90
63260;DHT22;49390;51.380;0.098;2024-02-21T06:26:08;9.60;99.90
63260;DHT22;49390;51.380;0.098;2024-02-21T06:28:36;9.60;99.90
63260;DHT22;49390;51.380;0.098;2024-02-21T06:31:03;9.50;99.90
63260;DHT22;49390;51.380;0.098;2024-02-21T06:33:31;9.50;99.90
63260;DHT22;49390;51.380;0.098;2024-02-21T06:35:59;9.50;99.90
63260;DHT22;49390;51.380;0.098;2024-02-21T06:38:27;9.50;99.90
63260;DHT22;49390;51.380;0.098;2024-02-21T06:40:55;9.60;99.90
63260;DHT22;49390;51.380;0.098;2024-02-21T06:43:23;9.50;99.90
63260;DHT22;49390;51.380;0.098;2024-02-21T06:45:51;9.60;99.90
63260;DHT22;49390;51.380;0.098;2024-02-21T06:48:19;9.40;99.90
63260;DHT22;49390;51.380;0.098;2024-02-21T06:50:47;9.60;99.90
63260;DHT22;49390;51.380;0.098;2024-02-21T06:53:15;9.50;99.90
63260;DHT22;49390;51.380;0.098;2024-02-21T06:55:43;9.50;99.90
63260;DHT22;49390;51.380;0.098;2024-02-21T06:58:11;9.40;99.90
63260;DHT22;49390;51.380;0.098;2024-02-21T07:00:40;9.50;99.90
63260;DHT22;49390;51.380;0.098;2024-02-21T07:03:08;9.40;99.90
63260;DHT22;49390;51.380;0.098;2024-02-21T07:05:36;9.40;99.90
63260;DHT22;49390;51.380;0.098;2024-02-21T07:08:04;9.50;99.90
63260;DHT22;49390;51.380;0.098;2024-02-21T07:10:32;9.40;99.90
63260;DHT22;49390;51.380;0.098;2024-02-21T07:13:00;9.40;99.90
63260;DHT22;49390;51.380;0.098;2024-02-21T07:15:28;9.40;99.90
63260;DHT22;49390;51.380;0.098;2024-02-21T07:17:58;9.50;99.90
63260;DHT22;49390;51.380;0.098;2024-02-21T07:20:27;9.40;99.90
63260;DHT22;49390;51.380;0.098;2024-02-21T07:22:55;9.40;99.90
63260;DHT22;49390;51.380;0.098;2024-02-21T07:25:22;9.50;99.90
63260;DHT22;49390;51.380;0.098;2024-02-21T07:27:50;9.50;99.90
63260;DHT22;49390;51.380;0.098;2024-02-21T07:30:18;9.50;99.90
63260;DHT22;49390;51.380;0.098;2024-02-21T07:32:49;9.50;99.90
63260;DHT22;49390;51.380;0.098;2024-02-21T07:35:18;9.50;99.90
63260;DHT22;49390;51.380;0.098;2024-02-21T07:37:46;9.50;99.90
63260;DHT22;49390;51.380;0.098;2024-02-21T07:40:15;9.40;99.90
63260;DHT22;49390;51.380;0.098;2024-02-21T07:42:44;9.50;99.90
63260;DHT22;49390;51.380;0.098;2024-02-21T07:45:17;9.50;99.90
63260;DHT22;49390;51.380;0.098;2024-02-21T07:47:46;9.50;99.90
63260;DHT22;49390;51.380;0.098;2024-02-21T07:50:14;9.50;99.90
63260;DHT22;49390;51.380;0.098;2024-02-21T07:52:42;9.50;99.90
63260;DHT22;49390;51.380;0.098;2024-02-21T07:55:10;9.50;99.90
63260;DHT22;49390;51.380;0.098;2024-02-21T07:57:38;9.50;99.90
63260;DHT22;49390;51.380;0.098;2024-02-21T08:00:06;9.60;99.90
63260;DHT22;49390;51.380;0.098;2024-02-21T08:02:40;9.50;99.90
63260;DHT22;49390;51.380;0.098;2024-02-21T08:05:10;9.60;99.90
63260;DHT22;49390;51.380;0.098;2024-02-21T08:07:40;9.60;99.90
63260;DHT22;49390;51.380;0.098;2024-02-21T08:10:08;9.60;99.90
63260;DHT22;49390;51.380;0.098;2024-02-21T08:12:36;9.60;99.90
63260;DHT22;49390;51.380;0.098;2024-02-21T08:15:04;9.60;99.90
63260;DHT22;49390;51.380;0.098;2024-02-21T08:17:32;9.70;99.90
63260;DHT22;49390;51.380;0.098;2024-02-21T08:20:00;9.70;99.90
63260;DHT22;49390;51.380;0.098;2024-02-21T08:22:28;9.70;99.90
63260;DHT22;49390;51.380;0.098;2024-02-21T08:24:56;9.70;99.90
63260;DHT22;49390;51.380;0.098;2024-02-21T08:27:23;9.70;99.90
63260;DHT22;49390;51.380;0.098;2024-02-21T08:29:51;9.80;99.90
63260;DHT22;49390;51.380;0.098;2024-02-21T08:32:20;9.70;99.90
63260;DHT22;49390;51.380;0.098;2024-02-21T08:34:48;9.80;99.90
63260;DHT22;49390;51.380;0.098;2024-02-21T08:37:16;9.80;99.90
63260;DHT22;49390;51.380;0.098;2024-02-21T08:39:47;9.80;99.90
63260;DHT22;49390;51.380;0.098;2024-02-21T08:42:15;9.90;99.90
63260;DHT22;49390;51.380;0.098;2024-02-21T08:44:43;9.90;99.90
63260;DHT22;49390;51.380;0.098;2024-02-21T08:47:11;9.90;99.90
63260;DHT22;49390;51.380;0.098;2024-02-21T08:49:39;9.90;99.90
63260;DHT22;49390;51.380;0.098;2024-02-21T08:52:07;9.90;99.90
63260;DHT22;49390;51.380;0.098;2024-02-21T08:54:35;9.90;99.90
63260;DHT22;49390;51.380;0.098;2024-02-21T08:57:03;9.90;99.90
63260;DHT22;49390;51.380;0.098;2024-02-21T08:59:31;9.90;99.90
63260;DHT22;49390;51.380;0.098;2024-02-21T09:01:59;9.90;99.90
63260;DHT22;49390;51.380;0.098;2024-02-21T09:04:27;10.00;99.90
63260;DHT22;49390;51.380;0.098;2024-02-21T09:06:55;10.00;99.90
63260;DHT22;49390;51.380;0.098;2024-02-21T09:09:23;10.00;99.90
63260;DHT22;49390;51.380;0.098;2024-02-21T09:11:55;10.10;99.90
63260;DHT22;49390;51.380;0.098;2024-02-21T09:14:22;10.00;99.90
63260;DHT22;49390;51.380;0.098;2024-02-21T09:16:50;10.00;99.90
63260;DHT22;49390;51.380;0.098;2024-02-21T09:19:18;10.00;99.90
63260;DHT22;49390;51.380;0.098;2024-02-21T09:21:46;10.10;99.90
63260;DHT22;49390;51.380;0.098;2024-02-21T09:24:14;10.00;99.90
63260;DHT22;49390;51.380;0.098;2024-02-21T09:26:42;10.10;99.90
63260;DHT22;49390;51.380;0.098;2024-02-21T09:29:10;10.10;99.90
63260;DHT22;49390;51.380;0.098;2024-02-21T09:31:38;10.10;99.90
63260;DHT22;49390;51.380;0.098;2024-02-21T09:34:06;10.10;99.90
63260;DHT22;49390;51.380;0.098;2024-02-21T09:36:34;10.10;99.90
63260;DHT22;49390;51.380;0.098;2024-02-21T09:39:02;10.10;99.90
63260;DHT22;49390;51.380;0.098;2024-02-21T09:41:30;10.20;99.90
63260;DHT22;49390;51.380;0.098;2024-02-21T09:43:58;10.20;99.90
63260;DHT22;49390;51.380;0.098;2024-02-21T09:51:55;10.20;99.90
63260;DHT22;49390;51.380;0.098;2024-02-21T09:54:23;10.20;99.90
63260;DHT22;49390;51.380;0.098;2024-02-21T09:56:51;10.20;99.90
63260;DHT22;49390;51.380;0.098;2024-02-21T09:59:19;10.20;99.90
63260;DHT22;49390;51.380;0.098;2024-02-21T10:01:47;10.20;99.90
63260;DHT22;49390;51.380;0.098;2024-02-21T10:04:16;10.30;99.90
63260;DHT22;49390;51.380;0.098;2024-02-21T10:06:44;10.20;99.90
63260;DHT22;49390;51.380;0.098;2024-02-21T10:09:26;10.20;99.90
63260;DHT22;49390;51.380;0.098;2024-02-21T10:12:09;10.20;99.90
63260;DHT22;49390;51.380;0.098;2024-02-21T10:14:38;10.20;99.90
63260;DHT22;49390;51.380;0.098;2024-02-21T10:17:06;10.20;99.90
63260;DHT22;49390;51.380;0.098;2024-02-21T10:19:38;10.20;99.90
63260;DHT22;49390;51.380;0.098;2024-02-21T10:22:09;10.20;99.90
63260;DHT22;49390;51.380;0.098;2024-02-21T10:24:38;10.20;99.90
63260;DHT22;49390;51.380;0.098;2024-02-21T10:27:09;10.20;99.90
63260;DHT22;49390;51.380;0.098;2024-02-21T10:29:40;10.20;99.90
63260;DHT22;49390;51.380;0.098;2024-02-21T10:32:09;10.20;99.90
63260;DHT22;49390;51.380;0.098;2024-02-21T10:34:41;10.20;99.90
63260;DHT22;49390;51.380;0.098;2024-02-21T10:37:10;10.20;99.90
63260;DHT22;49390;51.380;0.098;2024-02-21T10:39:40;10.20;99.90
63260;DHT22;49390;51.380;0.098;2024-02-21T10:42:11;10.30;99.90
63260;DHT22;49390;51.380;0.098;2024-02-21T10:44:40;10.30;99.90
63260;DHT22;49390;51.380;0.098;2024-02-21T10:47:10;10.30;99.90
63260;DHT22;49390;51.380;0.098;2024-02-21T10:49:41;10.30;99.90
63260;DHT22;49390;51.380;0.098;2024-02-21T10:55:03;10.30;99.90
63260;DHT22;49390;51.380;0.098;2024-02-21T10:57:34;10.20;99.90
63260;DHT22;49390;51.380;0.098;2024-02-21T11:00:04;10.30;99.90
63260;DHT22;49390;51.380;0.098;2024-02-21T11:02:36;10.30;99.90
63260;DHT22;49390;51.380;0.098;2024-02-21T11:05:05;10.30;99.90
63260;DHT22;49390;51.380;0.098;2024-02-21T11:07:36;10.30;99.90
63260;DHT22;49390;51.380;0.098;2024-02-21T11:10:05;10.30;99.90
63260;DHT22;49390;51.380;0.098;2024-02-21T11:12:35;10.30;99.90
63260;DHT22;49390;51.380;0.098;2024-02-21T11:15:07;10.30;99.90
63260;DHT22;49390;51.380;0.098;2024-02-21T11:17:35;10.30;99.90
63260;DHT22;49390;51.380;0.098;2024-02-21T11:20:17;10.30;99.90
63260;DHT22;49390;51.380;0.098;2024-02-21T11:22:45;10.40;99.90
63260;DHT22;49390;51.380;0.098;2024-02-21T11:25:21;10.40;99.90
63260;DHT22;49390;51.380;0.098;2024-02-21T11:27:49;10.40;99.90
63260;DHT22;49390;51.380;0.098;2024-02-21T11:30:27;10.40;99.90
63260;DHT22;49390;51.380;0.098;2024-02-21T11:33:06;10.50;99.90
63260;DHT22;49390;51.380;0.098;2024-02-21T11:35:35;10.50;99.90
63260;DHT22;49390;51.380;0.098;2024-02-21T11:38:12;10.50;99.90
63260;DHT22;49390;51.380;0.098;2024-02-21T11:40:45;10.50;99.90
63260;DHT22;49390;51.380;0.098;2024-02-21T11:43:14;10.50;99.90
63260;DHT22;49390;51.380;0.098;2024-02-21T11:45:42;10.50;99.90
63260;DHT22;49390;51.380;0.098;2024-02-21T11:48:10;10.60;99.90
63260;DHT22;49390;51.380;0.098;2024-02-21T11:50:38;10.60;99.90
63260;DHT22;49390;51.380;0.098;2024-02-21T11:53:07;10.70;99.90
63260;DHT22;49390;51.380;0.098;2024-02-21T11:55:35;10.60;99.90
63260;DHT22;49390;51.380;0.098;2024-02-21T11:58:03;10.60;99.90
63260;DHT22;49390;51.380;0.098;2024-02-21T12:00:32;10.50;99.90
63260;DHT22;49390;51.380;0.098;2024-02-21T12:03:00;10.70;99.90
63260;DHT22;49390;51.380;0.098;2024-02-21T12:05:30;10.60;99.90
63260;DHT22;49390;51.380;0.098;2024-02-21T12:07:58;10.60;99.90
63260;DHT22;49390;51.380;0.098;2024-02-21T12:10:27;10.60;99.90
63260;DHT22;49390;51.380;0.098;2024-02-21T12:13:08;10.60;99.90
63260;DHT22;49390;51.380;0.098;2024-02-21T12:15:38;10.60;99.90
63260;DHT22;49390;51.380;0.098;2024-02-21T12:18:05;10.60;99.90
63260;DHT22;49390;51.380;0.098;2024-02-21T12:20:33;10.60;99.90
63260;DHT22;49390;51.380;0.098;2024-02-21T12:23:03;10.60;99.90
63260;DHT22;49390;51.380;0.098;2024-02-21T12:25:32;10.60;99.90
63260;DHT22;49390;51.380;0.098;2024-02-21T12:28:00;10.60;99.90
63260;DHT22;49390;51.380;0.098;2024-02-21T12:30:28;10.60;99.90
63260;DHT22;49390;51.380;0.098;2024-02-21T12:32:57;10.70;99.90
63260;DHT22;49390;51.380;0.098;2024-02-21T12:35:27;10.80;99.90
63260;DHT22;49390;51.380;0.098;2024-02-21T12:37:55;10.70;99.90
63260;DHT22;49390;51.380;0.098;2024-02-21T12:40:23;10.80;99.90
63260;DHT22;49390;51.380;0.098;2024-02-21T12:42:51;10.90;99.90
63260;DHT22;49390;51.380;0.098;2024-02-21T12:45:20;10.90;99.90
63260;DHT22;49390;51.380;0.098;2024-02-21T12:47:48;11.00;99.90
63260;DHT22;49390;51.380;0.098;2024-02-21T12:50:16;11.00;99.90
63260;DHT22;49390;51.380;0.098;2024-02-21T12:52:43;11.00;99.90
63260;DHT22;49390;51.380;0.098;2024-02-21T12:55:11;11.00;99.90
63260;DHT22;49390;51.380;0.098;2024-02-21T12:57:41;11.00;99.90
63260;DHT22;49390;51.380;0.098;2024-02-21T13:00:09;11.10;99.90
63260;DHT22;49390;51.380;0.098;2024-02-21T13:02:38;11.10;99.90
63260;DHT22;49390;51.380;0.098;2024-02-21T13:05:09;11.10;99.90
63260;DHT22;49390;51.380;0.098;2024-02-21T13:07:37;11.20;99.90
63260;DHT22;49390;51.380;0.098;2024-02-21T13:10:05;11.20;99.90
63260;DHT22;49390;51.380;0.098;2024-02-21T13:12:33;11.30;99.90
63260;DHT22;49390;51.380;0.098;2024-02-21T13:15:02;11.30;99.90
63260;DHT22;49390;51.380;0.098;2024-02-21T13:17:30;11.30;99.90
63260;DHT22;49390;51.380;0.098;2024-02-21T13:20:00;11.30;99.90
63260;DHT22;49390;51.380;0.098;2024-02-21T13:22:28;11.40;99.90
63260;DHT22;49390;51.380;0.098;2024-02-21T13:24:56;11.40;99.90
63260;DHT22;49390;51.380;0.098;2024-02-21T13:27:25;11.40;99.90
63260;DHT22;49390;51.380;0.098;2024-02-21T13:29:53;11.40;99.90
63260;DHT22;49390;51.380;0.098;2024-02-21T13:32:21;11.40;99.90
63260;DHT22;49390;51.380;0.098;2024-02-21T13:34:49;11.40;99.90
63260;DHT22;49390;51.380;0.098;2024-02-21T13:37:20;11.40;99.90
63260;DHT22;49390;51.380;0.098;2024-02-21T13:39:49;11.40;99.90
63260;DHT22;49390;51.380;0.098;2024-02-21T13:42:17;11.40;99.90
63260;DHT22;49390;51.380;0.098;2024-02-21T13:44:45;11.30;99.90
63260;DHT22;49390;51.380;0.098;2024-02-21T13:47:14;11.50;99.90
63260;DHT22;49390;51.380;0.098;2024-02-21T13:49:43;11.50;99.90
63260;DHT22;49390;51.380;0.098;2024-02-21T13:52:11;11.50;99.90
63260;DHT22;49390;51.380;0.098;2024-02-21T13:54:39;11.50;99.90
63260;DHT22;49390;51.380;0.098;2024-02-21T13:57:07;11.50;99.90
63260;DHT22;49390;51.380;0.098;2024-02-21T13:59:34;11.50;99.90
63260;DHT22;49390;51.380;0.098;2024-02-21T14:02:02;11.50;99.90
63260;DHT22;49390;51.380;0.098;2024-02-21T14:04:30;11.50;99.90
63260;DHT22;49390;51.380;0.098;2024-02-21T14:06:58;11.50;99.90
63260;DHT22;49390;51.380;0.098;2024-02-21T14:09:27;11.50;99.90
63260;DHT22;49390;51.380;0.098;2024-02-21T14:11:56;11.50;99.90
63260;DHT22;49390;51.380;0.098;2024-02-21T14:14:24;11.50;99.90
63260;DHT22;49390;51.380;0.098;2024-02-21T14:16:52;11.40;99.90
63260;DHT22;49390;51.380;0.098;2024-02-21T14:19:20;11.40;99.90
63260;DHT22;49390;51.380;0.098;2024-02-21T14:21:48;11.40;99.90
63260;DHT22;49390;51.380;0.098;2024-02-21T14:24:17;11.40;99.90
63260;DHT22;49390;51.380;0.098;2024-02-21T14:26:44;11.40;99.90
63260;DHT22;49390;51.380;0.098;2024-02-21T14:29:12;11.40;99.90
63260;DHT22;49390;51.380;0.098;2024-02-21T14:31:40;11.40;99.90
63260;DHT22;49390;51.380;0.098;2024-02-21T14:34:08;11.40;99.90
63260;DHT22;49390;51.380;0.098;2024-02-21T14:36:36;11.30;99.90
63260;DHT22;49390;51.380;0.098;2024-02-21T14:39:04;11.30;99.90
63260;DHT22;49390;51.380;0.098;2024-02-21T14:41:32;11.30;99.90
63260;DHT22;49390;51.380;0.098;2024-02-21T14:44:02;11.30;99.90
63260;DHT22;49390;51.380;0.098;2024-02-21T14:46:32;11.30;99.90
63260;DHT22;49390;51.380;0.098;2024-02-21T14:49:00;11.30;99.90
63260;DHT22;49390;51.380;0.098;2024-02-21T14:51:28;11.30;99.90
63260;DHT22;49390;51.380;0.098;2024-02-21T14:53:56;11.30;99.90
63260;DHT22;49390;51.380;0.098;2024-02-21T14:56:24;11.30;99.90
63260;DHT22;49390;51.380;0.098;2024-02-21T14:58:52;11.30;99.90
63260;DHT22;49390;51.380;0.098;2024-02-21T15:01:24;11.30;99.90
63260;DHT22;49390;51.380;0.098;2024-02-21T15:03:52;11.40;99.90
63260;DHT22;49390;51.380;0.098;2024-02-21T15:06:20;11.40;99.90
63260;DHT22;49390;51.380;0.098;2024-02-21T15:08:48;11.40;99.90
63260;DHT22;49390;51.380;0.098;2024-02-21T15:11:17;11.40;99.90
63260;DHT22;49390;51.380;0.098;2024-02-21T15:13:46;11.40;99.90
63260;DHT22;49390;51.380;0.098;2024-02-21T15:16:14;11.40;99.90
63260;DHT22;49390;51.380;0.098;2024-02-21T15:18:42;11.40;99.90
63260;DHT22;49390;51.380;0.098;2024-02-21T15:21:10;11.40;99.90
63260;DHT22;49390;51.380;0.098;2024-02-21T15:23:41;11.40;99.90
63260;DHT22;49390;51.380;0.098;2024-02-21T15:26:09;11.40;99.90
63260;DHT22;49390;51.380;0.098;2024-02-21T15:28:37;11.40;99.90
63260;DHT22;49390;51.380;0.098;2024-02-21T15:31:05;11.40;99.90
63260;DHT22;49390;51.380;0.098;2024-02-21T15:33:33;11.40;99.90
63260;DHT22;49390;51.380;0.098;2024-02-21T15:36:05;11.30;99.90
63260;DHT22;49390;51.380;0.098;2024-02-21T15:38:33;11.30;99.90
63260;DHT22;49390;51.380;0.098;2024-02-21T15:41:01;11.30;99.90
63260;DHT22;49390;51.380;0.098;2024-02-21T15:43:29;11.30;99.90
63260;DHT22;49390;51.380;0.098;2024-02-21T15:45:57;11.40;99.90
63260;DHT22;49390;51.380;0.098;2024-02-21T15:48:25;11.30;99.90
63260;DHT22;49390;51.380;0.098;2024-02-21T15:50:53;11.30;99.90
63260;DHT22;49390;51.380;0.098;2024-02-21T15:53:22;11.40;99.90
63260;DHT22;49390;51.380;0.098;2024-02-21T15:55:52;11.30;99.90
63260;DHT22;49390;51.380;0.098;2024-02-21T15:58:21;11.30;99.90